createdAt,value
2023-04-04T00:00:08.245Z,68.08
2023-04-04T00:00:40.296Z,68.12
2023-04-04T00:01:13.639Z,67.82
2023-04-04T00:01:45.276Z,67.68
2023-04-04T00:02:17.346Z,67.68
2023-04-04T00:02:49.611Z,68.02
2023-04-04T00:03:21.830Z,68.52
2023-04-04T00:03:53.936Z,68.15
2023-04-04T00:04:25.944Z,68.25
2023-04-04T00:04:57.590Z,68.26
2023-04-04T00:05:29.206Z,68.61
2023-04-04T00:06:00.891Z,68.79
2023-04-04T00:06:32.538Z,68.79
2023-04-04T00:07:04.239Z,68.73
2023-04-04T00:07:36.009Z,68.09
2023-04-04T00:08:07.605Z,67.39
2023-04-04T00:08:39.271Z,67.25
2023-04-04T00:09:10.931Z,67.20
2023-04-04T00:09:42.559Z,67.58
2023-04-04T00:10:15.179Z,69.24
2023-04-04T00:10:46.863Z,69.87
2023-04-04T00:11:18.604Z,68.99
2023-04-04T00:11:50.873Z,68.73
2023-04-04T00:12:24.772Z,68.35
2023-04-04T00:12:59.116Z,68.59
2023-04-04T00:13:30.869Z,68.23
2023-04-04T00:14:02.742Z,67.76
2023-04-04T00:14:34.512Z,67.89
2023-04-04T00:15:07.200Z,68.53
2023-04-04T00:15:39.092Z,68.60
2023-04-04T00:16:11.851Z,68.08
2023-04-04T00:16:43.694Z,67.75
2023-04-04T00:17:15.332Z,68.07
2023-04-04T00:17:47.046Z,68.06
2023-04-04T00:18:18.862Z,67.99
2023-04-04T00:18:50.497Z,67.74
2023-04-04T00:19:22.840Z,67.95
2023-04-04T00:19:54.519Z,69.00
2023-04-04T00:20:26.637Z,68.54
2023-04-04T00:20:59.012Z,68.45
2023-04-04T00:21:31.171Z,69.21
2023-04-04T00:22:02.796Z,69.19
2023-04-04T00:22:34.409Z,69.44
2023-04-04T00:23:06.195Z,70.14
2023-04-04T00:23:38.038Z,71.36
2023-04-04T00:24:09.636Z,71.69
2023-04-04T00:24:41.603Z,71.02
2023-04-04T00:25:13.279Z,71.21
2023-04-04T00:25:50.995Z,70.65
2023-04-04T00:26:23.412Z,70.92
2023-04-04T00:26:55.481Z,70.86
2023-04-04T00:27:27.201Z,70.89
2023-04-04T00:28:01.100Z,71.07
2023-04-04T00:28:33.072Z,71.29
2023-04-04T00:29:04.726Z,71.60
2023-04-04T00:29:37.394Z,71.22
2023-04-04T00:30:09.660Z,72.70
2023-04-04T00:30:41.390Z,72.50
2023-04-04T00:31:13.233Z,72.24
2023-04-04T00:31:45.006Z,72.39
2023-04-04T00:32:16.832Z,73.01
2023-04-04T00:32:48.656Z,73.34
2023-04-04T00:33:20.451Z,73.57
2023-04-04T00:33:52.064Z,73.27
2023-04-04T00:34:24.043Z,72.77
2023-04-04T00:34:57.296Z,72.68
2023-04-04T00:35:29.140Z,72.57
2023-04-04T00:36:00.843Z,72.96
2023-04-04T00:36:32.814Z,73.50
2023-04-04T00:37:07.436Z,74.41
2023-04-04T00:37:39.201Z,73.51
2023-04-04T00:38:10.902Z,73.35
2023-04-04T00:38:42.634Z,73.64
2023-04-04T00:39:14.255Z,73.65
2023-04-04T00:39:45.894Z,74.47
2023-04-04T00:40:18.550Z,74.67
2023-04-04T00:40:51.574Z,74.83
2023-04-04T00:41:23.915Z,74.22
2023-04-04T00:41:56.554Z,74.19
2023-04-04T00:42:28.712Z,74.12
2023-04-04T00:43:00.810Z,73.95
2023-04-04T00:43:33.369Z,74.36
2023-04-04T00:44:06.064Z,74.23
2023-04-04T00:44:37.662Z,74.18
2023-04-04T00:45:09.784Z,73.95
2023-04-04T00:45:41.516Z,73.69
2023-04-04T00:46:15.187Z,74.01
2023-04-04T00:46:47.148Z,73.65
2023-04-04T00:47:22.247Z,73.39
2023-04-04T00:47:56.051Z,73.39
2023-04-04T00:48:28.446Z,73.44
2023-04-04T00:49:00.111Z,73.42
2023-04-04T00:49:31.856Z,73.44
2023-04-04T00:50:03.790Z,73.28
2023-04-04T00:50:35.767Z,73.33
2023-04-04T00:51:07.499Z,73.68
2023-04-04T00:51:39.109Z,74.10
2023-04-04T00:52:10.752Z,73.73
2023-04-04T00:52:42.469Z,73.72
2023-04-04T00:53:14.233Z,73.72
2023-04-04T00:53:48.014Z,74.00
2023-04-04T00:54:19.692Z,74.35
2023-04-04T00:54:51.866Z,75.20
2023-04-04T00:55:24.074Z,76.00
2023-04-04T00:55:56.081Z,75.54
2023-04-04T00:56:29.089Z,76.11
2023-04-04T00:57:01.769Z,76.09
2023-04-04T00:57:34.508Z,76.16
2023-04-04T00:58:06.687Z,76.33
2023-04-04T00:58:38.552Z,75.87
2023-04-04T00:59:10.284Z,75.13
2023-04-04T00:59:42.637Z,75.31
2023-04-04T01:00:15.321Z,74.94
2023-04-04T01:00:47.052Z,75.03
2023-04-04T01:01:18.938Z,75.30
2023-04-04T01:01:50.983Z,74.76
2023-04-04T01:02:24.302Z,75.17
2023-04-04T01:02:56.060Z,75.45
2023-04-04T01:03:28.016Z,75.04
2023-04-04T01:03:59.711Z,74.90
2023-04-04T01:04:31.810Z,74.53
2023-04-04T01:05:04.395Z,74.59
2023-04-04T01:05:36.094Z,74.57
2023-04-04T01:06:08.839Z,74.44
2023-04-04T01:06:40.842Z,74.26
2023-04-04T01:07:12.483Z,74.58
2023-04-04T01:07:44.121Z,74.42
2023-04-04T01:08:22.796Z,74.19
2023-04-04T01:08:55.376Z,74.08
2023-04-04T01:09:27.777Z,73.91
2023-04-04T01:09:59.391Z,74.06
2023-04-04T01:10:31.328Z,73.94
2023-04-04T01:11:03.048Z,74.09
2023-04-04T01:11:35.769Z,74.16
2023-04-04T01:12:07.522Z,74.17
2023-04-04T01:12:39.799Z,74.14
2023-04-04T01:13:11.528Z,74.06
2023-04-04T01:13:44.524Z,74.19
2023-04-04T01:14:16.285Z,74.18
2023-04-04T01:14:47.937Z,74.29
2023-04-04T01:15:19.591Z,74.57
2023-04-04T01:15:51.262Z,74.31
2023-04-04T01:16:24.291Z,73.98
2023-04-04T01:16:56.013Z,74.28
2023-04-04T01:17:28.270Z,74.64
2023-04-04T01:18:02.603Z,74.64
2023-04-04T01:18:36.814Z,74.31
2023-04-04T01:19:13.916Z,74.42
2023-04-04T01:20:07.300Z,74.45
2023-04-04T01:21:02.251Z,74.39
2023-04-04T01:21:34.954Z,74.46
2023-04-04T01:22:07.467Z,74.64
2023-04-04T01:22:41.147Z,74.49
2023-04-04T01:23:13.514Z,74.24
2023-04-04T01:23:58.784Z,74.19
2023-04-04T01:24:33.881Z,74.16
2023-04-04T01:25:07.062Z,74.35
2023-04-04T01:25:38.775Z,74.24
2023-04-04T01:26:10.548Z,74.13
2023-04-04T01:26:42.195Z,74.38
2023-04-04T01:27:14.698Z,74.79
2023-04-04T01:27:46.622Z,75.07
2023-04-04T01:28:18.205Z,75.17
2023-04-04T01:28:50.067Z,74.88
2023-04-04T01:29:21.788Z,74.59
2023-04-04T01:29:54.051Z,74.16
2023-04-04T01:30:29.401Z,74.49
2023-04-04T01:31:04.887Z,74.62
2023-04-04T01:31:42.456Z,74.57
2023-04-04T01:32:20.353Z,74.60
2023-04-04T01:33:10.810Z,74.81
2023-04-04T01:33:55.988Z,74.80
2023-04-04T01:34:52.754Z,74.74
2023-04-04T01:35:37.025Z,74.86
2023-04-04T01:36:36.664Z,75.15
2023-04-04T01:37:37.426Z,74.21
2023-04-04T01:38:27.737Z,74.35
2023-04-04T01:39:02.076Z,74.59
2023-04-04T01:39:45.554Z,74.41
2023-04-04T01:40:35.365Z,74.24
2023-04-04T01:41:09.893Z,74.07
2023-04-04T01:41:42.325Z,74.29
2023-04-04T01:42:15.244Z,74.33
2023-04-04T01:42:48.057Z,74.33
2023-04-04T01:43:19.770Z,74.41
2023-04-04T01:43:52.723Z,74.58
2023-04-04T01:44:26.497Z,74.69
2023-04-04T01:44:58.434Z,74.56
2023-04-04T01:45:30.334Z,74.69
2023-04-04T01:46:02.806Z,74.75
2023-04-04T01:46:36.277Z,74.59
2023-04-04T01:47:10.808Z,74.91
2023-04-04T01:47:43.304Z,74.98
2023-04-04T01:48:16.766Z,75.19
2023-04-04T01:48:48.627Z,75.36
2023-04-04T01:49:20.657Z,75.04
2023-04-04T01:49:54.098Z,75.03
2023-04-04T01:50:26.623Z,74.78
2023-04-04T01:50:58.417Z,74.85
2023-04-04T01:51:31.162Z,74.55
2023-04-04T01:52:03.910Z,74.82
2023-04-04T01:52:35.925Z,75.02
2023-04-04T01:53:07.745Z,75.16
2023-04-04T01:53:39.328Z,75.15
2023-04-04T01:54:11.128Z,74.76
2023-04-04T01:54:42.819Z,74.49
2023-04-04T01:55:14.418Z,74.61
2023-04-04T01:55:45.970Z,74.82
2023-04-04T01:56:18.203Z,75.01
2023-04-04T01:56:49.979Z,74.87
2023-04-04T01:57:21.625Z,74.79
2023-04-04T01:57:53.235Z,74.63
2023-04-04T01:58:24.841Z,74.76
2023-04-04T01:58:56.950Z,74.74
2023-04-04T01:59:28.733Z,74.63
2023-04-04T02:00:00.714Z,74.67
2023-04-04T02:00:32.379Z,74.91
2023-04-04T02:01:04.023Z,75.13
2023-04-04T02:01:36.134Z,75.22
2023-04-04T02:02:07.870Z,75.15
2023-04-04T02:02:39.620Z,75.35
2023-04-04T02:03:11.325Z,75.76
2023-04-04T02:03:43.296Z,75.68
2023-04-04T02:04:15.382Z,75.81
2023-04-04T02:04:47.728Z,75.63
2023-04-04T02:05:19.331Z,75.56
2023-04-04T02:05:51.018Z,75.44
2023-04-04T02:06:22.694Z,75.60
2023-04-04T02:06:56.032Z,75.53
2023-04-04T02:07:27.609Z,75.46
2023-04-04T02:07:59.190Z,75.44
2023-04-04T02:08:31.059Z,75.66
2023-04-04T02:09:02.663Z,75.70
2023-04-04T02:09:34.530Z,76.07
2023-04-04T02:10:06.617Z,75.68
2023-04-04T02:10:38.436Z,75.93
2023-04-04T02:11:10.507Z,75.69
2023-04-04T02:11:42.762Z,75.48
2023-04-04T02:12:14.416Z,75.31
2023-04-04T02:12:46.794Z,75.38
2023-04-04T02:13:18.428Z,75.51
2023-04-04T02:13:50.407Z,75.65
2023-04-04T02:14:22.104Z,75.85
2023-04-04T02:14:53.716Z,75.82
2023-04-04T02:15:25.423Z,75.42
2023-04-04T02:15:57.208Z,75.38
2023-04-04T02:16:29.013Z,75.79
2023-04-04T02:17:00.640Z,75.78
2023-04-04T02:17:32.650Z,75.67
2023-04-04T02:18:05.079Z,75.54
2023-04-04T02:18:37.186Z,75.16
2023-04-04T02:19:09.124Z,75.31
2023-04-04T02:19:41.008Z,75.29
2023-04-04T02:20:12.694Z,75.32
2023-04-04T02:20:44.371Z,75.80
2023-04-04T02:21:16.177Z,75.52
2023-04-04T02:21:47.758Z,75.23
2023-04-04T02:22:19.339Z,75.40
2023-04-04T02:22:55.119Z,75.20
2023-04-04T02:23:26.706Z,75.12
2023-04-04T02:23:58.342Z,75.14
2023-04-04T02:24:30.029Z,75.23
2023-04-04T02:25:02.953Z,75.14
2023-04-04T02:25:34.637Z,75.36
2023-04-04T02:26:06.311Z,75.56
2023-04-04T02:26:38.110Z,75.24
2023-04-04T02:27:09.709Z,75.22
2023-04-04T02:27:41.442Z,75.18
2023-04-04T02:28:13.207Z,75.20
2023-04-04T02:28:45.157Z,75.24
2023-04-04T02:29:17.073Z,74.99
2023-04-04T02:29:48.754Z,74.61
2023-04-04T02:30:20.399Z,74.66
2023-04-04T02:30:52.328Z,75.18
2023-04-04T02:31:24.084Z,75.28
2023-04-04T02:31:56.041Z,75.17
2023-04-04T02:32:28.060Z,75.05
2023-04-04T02:33:00.262Z,75.09
2023-04-04T02:33:32.056Z,75.04
2023-04-04T02:34:03.757Z,75.24
2023-04-04T02:34:35.384Z,75.34
2023-04-04T02:35:07.451Z,75.40
2023-04-04T02:35:39.175Z,75.32
2023-04-04T02:36:12.210Z,75.45
2023-04-04T02:36:43.828Z,75.28
2023-04-04T02:37:15.582Z,75.14
2023-04-04T02:37:50.168Z,75.27
2023-04-04T02:38:21.805Z,75.43
2023-04-04T02:38:53.525Z,75.64
2023-04-04T02:39:25.131Z,75.51
2023-04-04T02:39:56.870Z,75.35
2023-04-04T02:40:28.483Z,75.27
2023-04-04T02:41:00.096Z,75.67
2023-04-04T02:41:32.302Z,75.59
2023-04-04T02:42:04.031Z,76.02
2023-04-04T02:42:35.649Z,75.75
2023-04-04T02:43:07.351Z,75.18
2023-04-04T02:43:39.111Z,75.01
2023-04-04T02:44:10.984Z,75.17
2023-04-04T02:44:42.755Z,75.56
2023-04-04T02:45:14.984Z,75.80
2023-04-04T02:45:48.582Z,75.54
2023-04-04T02:46:22.071Z,75.25
2023-04-04T02:46:53.982Z,75.61
2023-04-04T02:47:25.812Z,75.25
2023-04-04T02:47:57.939Z,75.01
2023-04-04T02:48:29.596Z,74.81
2023-04-04T02:49:02.077Z,74.84
2023-04-04T02:49:33.681Z,74.64
2023-04-04T02:50:05.762Z,74.42
2023-04-04T02:50:39.449Z,74.83
2023-04-04T02:51:11.251Z,75.36
2023-04-04T02:51:43.073Z,75.37
2023-04-04T02:52:14.658Z,75.11
2023-04-04T02:52:46.389Z,75.10
2023-04-04T02:53:18.007Z,75.07
2023-04-04T02:53:49.647Z,75.22
2023-04-04T02:54:21.593Z,75.16
2023-04-04T02:54:53.169Z,75.06
2023-04-04T02:55:24.792Z,75.27
2023-04-04T02:55:56.388Z,75.31
2023-04-04T02:56:28.082Z,75.34
2023-04-04T02:56:59.702Z,75.49
2023-04-04T02:57:31.851Z,75.37
2023-04-04T02:58:03.504Z,75.48
2023-04-04T02:58:35.517Z,75.45
2023-04-04T02:59:07.785Z,75.31
2023-04-04T02:59:39.438Z,75.32
2023-04-04T03:00:11.509Z,75.30
2023-04-04T03:00:43.343Z,75.86
2023-04-04T03:01:15.570Z,76.42
2023-04-04T03:01:47.221Z,76.06
2023-04-04T03:02:19.114Z,75.65
2023-04-04T03:02:58.040Z,75.52
2023-04-04T03:03:30.026Z,75.57
2023-04-04T03:04:03.656Z,75.51
2023-04-04T03:04:36.707Z,75.33
2023-04-04T03:05:08.731Z,75.40
2023-04-04T03:05:40.360Z,75.54
2023-04-04T03:06:15.041Z,75.32
2023-04-04T03:06:48.341Z,75.28
2023-04-04T03:07:20.107Z,75.41
2023-04-04T03:07:58.362Z,75.73
2023-04-04T03:08:30.093Z,75.71
2023-04-04T03:09:02.472Z,75.61
2023-04-04T03:09:34.161Z,75.47
2023-04-04T03:10:06.717Z,75.69
2023-04-04T03:10:39.027Z,75.75
2023-04-04T03:11:11.110Z,75.54
2023-04-04T03:11:42.986Z,75.39
2023-04-04T03:12:14.715Z,75.55
2023-04-04T03:12:46.484Z,75.32
2023-04-04T03:13:18.351Z,75.41
2023-04-04T03:13:51.668Z,75.74
2023-04-04T03:14:23.327Z,75.57
2023-04-04T03:14:55.062Z,75.42
2023-04-04T03:15:27.703Z,75.60
2023-04-04T03:16:03.631Z,75.65
2023-04-04T03:16:35.434Z,75.58
2023-04-04T03:17:09.426Z,75.63
2023-04-04T03:17:41.401Z,75.58
2023-04-04T03:18:13.109Z,75.94
2023-04-04T03:18:44.902Z,76.10
2023-04-04T03:19:16.881Z,76.20
2023-04-04T03:19:49.096Z,76.07
2023-04-04T03:20:22.027Z,76.07
2023-04-04T03:20:53.602Z,75.73
2023-04-04T03:21:25.386Z,75.75
2023-04-04T03:21:57.521Z,75.61
2023-04-04T03:22:29.106Z,75.52
2023-04-04T03:23:00.793Z,75.69
2023-04-04T03:23:32.816Z,75.89
2023-04-04T03:24:04.680Z,76.00
2023-04-04T03:24:38.129Z,75.94
2023-04-04T03:25:10.966Z,75.87
2023-04-04T03:25:42.596Z,76.06
2023-04-04T03:26:14.172Z,75.77
2023-04-04T03:26:45.821Z,75.75
2023-04-04T03:27:17.424Z,75.57
2023-04-04T03:27:49.144Z,75.65
2023-04-04T03:28:20.737Z,75.68
2023-04-04T03:28:52.976Z,75.92
2023-04-04T03:29:24.938Z,76.10
2023-04-04T03:29:56.547Z,76.58
2023-04-04T03:30:28.145Z,76.49
2023-04-04T03:31:06.514Z,76.24
2023-04-04T03:31:38.302Z,76.43
2023-04-04T03:32:10.001Z,76.52
2023-04-04T03:32:41.683Z,76.45
2023-04-04T03:33:13.359Z,76.55
2023-04-04T03:33:45.221Z,76.87
2023-04-04T03:34:17.038Z,77.27
2023-04-04T03:34:48.619Z,78.90
2023-04-04T03:35:20.277Z,78.32
2023-04-04T03:35:51.879Z,78.25
2023-04-04T03:36:23.496Z,78.46
2023-04-04T03:36:55.301Z,78.36
2023-04-04T03:37:27.055Z,79.51
2023-04-04T03:38:02.052Z,78.98
2023-04-04T03:38:33.635Z,79.59
2023-04-04T03:39:05.277Z,79.71
2023-04-04T03:39:36.919Z,79.42
2023-04-04T03:40:09.602Z,79.11
2023-04-04T03:40:42.226Z,78.86
2023-04-04T03:41:14.101Z,79.15
2023-04-04T03:41:45.742Z,79.13
2023-04-04T03:42:17.375Z,79.39
2023-04-04T03:42:49.012Z,79.62
2023-04-04T03:43:20.619Z,79.72
2023-04-04T03:43:52.191Z,79.30
2023-04-04T03:44:24.133Z,78.91
2023-04-04T03:44:55.869Z,78.66
2023-04-04T03:45:27.560Z,78.33
2023-04-04T03:46:06.232Z,78.22
2023-04-04T03:46:37.914Z,78.56
2023-04-04T03:47:09.792Z,79.10
2023-04-04T03:47:41.547Z,79.22
2023-04-04T03:48:13.594Z,79.77
2023-04-04T03:48:45.629Z,79.34
2023-04-04T03:49:17.347Z,78.80
2023-04-04T03:49:51.522Z,78.76
2023-04-04T03:50:23.267Z,78.88
2023-04-04T03:50:55.905Z,79.26
2023-04-04T03:51:28.011Z,79.37
2023-04-04T03:51:59.805Z,79.40
2023-04-04T03:52:31.371Z,79.97
2023-04-04T03:53:02.975Z,79.76
2023-04-04T03:53:36.633Z,79.53
2023-04-04T03:54:08.341Z,79.42
2023-04-04T03:54:41.768Z,79.99
2023-04-04T03:55:13.791Z,79.88
2023-04-04T03:55:45.865Z,79.45
2023-04-04T03:56:17.533Z,79.43
2023-04-04T03:56:49.854Z,79.46
2023-04-04T03:57:21.546Z,79.64
2023-04-04T03:57:53.356Z,79.27
2023-04-04T03:58:24.943Z,79.38
2023-04-04T03:58:56.784Z,79.92
2023-04-04T03:59:29.402Z,79.83
2023-04-04T04:00:01.079Z,79.77
2023-04-04T04:00:32.821Z,79.88
2023-04-04T04:01:04.412Z,79.80
2023-04-04T04:01:36.427Z,79.51
2023-04-04T04:02:08.025Z,79.44
2023-04-04T04:02:40.299Z,79.48
2023-04-04T04:03:13.134Z,79.23
2023-04-04T04:03:46.907Z,79.11
2023-04-04T04:04:18.702Z,79.07
2023-04-04T04:04:50.601Z,79.26
2023-04-04T04:05:22.214Z,78.88
2023-04-04T04:05:53.910Z,78.84
2023-04-04T04:06:25.813Z,78.86
2023-04-04T04:06:57.608Z,79.18
2023-04-04T04:07:29.213Z,79.15
2023-04-04T04:08:01.294Z,78.93
2023-04-04T04:08:32.910Z,78.90
2023-04-04T04:09:04.824Z,79.09
2023-04-04T04:09:36.726Z,79.00
2023-04-04T04:10:08.677Z,78.97
2023-04-04T04:10:40.870Z,78.64
2023-04-04T04:11:12.573Z,78.44
2023-04-04T04:11:44.202Z,78.52
2023-04-04T04:12:15.767Z,78.39
2023-04-04T04:12:47.471Z,78.39
2023-04-04T04:13:19.162Z,78.36
2023-04-04T04:13:50.847Z,78.58
2023-04-04T04:14:22.468Z,79.17
2023-04-04T04:14:54.158Z,79.17
2023-04-04T04:15:26.094Z,78.74
2023-04-04T04:15:57.860Z,78.61
2023-04-04T04:16:29.645Z,78.31
2023-04-04T04:17:01.379Z,78.47
2023-04-04T04:17:33.148Z,78.60
2023-04-04T04:18:05.198Z,78.66
2023-04-04T04:18:37.536Z,78.93
2023-04-04T04:19:09.217Z,78.65
2023-04-04T04:19:40.804Z,78.64
2023-04-04T04:20:12.802Z,78.80
2023-04-04T04:20:44.523Z,78.82
2023-04-04T04:21:16.090Z,78.93
2023-04-04T04:21:48.165Z,78.85
2023-04-04T04:22:19.757Z,78.55
2023-04-04T04:22:53.833Z,78.60
2023-04-04T04:23:26.297Z,78.72
2023-04-04T04:23:57.903Z,78.80
2023-04-04T04:24:29.551Z,78.76
2023-04-04T04:25:01.628Z,78.69
2023-04-04T04:25:33.273Z,78.77
2023-04-04T04:26:05.463Z,78.69
2023-04-04T04:26:37.025Z,78.61
2023-04-04T04:27:08.627Z,78.75
2023-04-04T04:27:41.229Z,78.82
2023-04-04T04:28:12.793Z,78.89
2023-04-04T04:28:45.982Z,79.20
2023-04-04T04:29:17.593Z,79.41
2023-04-04T04:29:49.354Z,79.24
2023-04-04T04:30:21.346Z,79.17
2023-04-04T04:30:53.346Z,78.96
2023-04-04T04:31:24.960Z,78.89
2023-04-04T04:31:56.569Z,78.87
2023-04-04T04:32:28.269Z,78.90
2023-04-04T04:32:59.897Z,78.91
2023-04-04T04:33:31.752Z,78.91
2023-04-04T04:34:06.593Z,78.74
2023-04-04T04:34:38.208Z,78.74
2023-04-04T04:35:10.031Z,78.81
2023-04-04T04:35:41.765Z,78.71
2023-04-04T04:36:13.384Z,78.78
2023-04-04T04:36:44.987Z,78.91
2023-04-04T04:37:16.574Z,79.20
2023-04-04T04:37:48.214Z,78.97
2023-04-04T04:38:19.845Z,79.11
2023-04-04T04:38:51.761Z,79.07
2023-04-04T04:39:23.502Z,78.93
2023-04-04T04:39:55.590Z,78.95
2023-04-04T04:40:27.159Z,78.85
2023-04-04T04:40:59.216Z,78.84
2023-04-04T04:41:31.012Z,78.90
2023-04-04T04:42:03.530Z,78.91
2023-04-04T04:42:35.127Z,78.82
2023-04-04T04:43:07.044Z,78.87
2023-04-04T04:43:38.858Z,78.83
2023-04-04T04:44:10.527Z,78.86
2023-04-04T04:44:42.174Z,78.89
2023-04-04T04:45:13.970Z,78.82
2023-04-04T04:45:45.662Z,78.72
2023-04-04T04:46:17.297Z,78.75
2023-04-04T04:46:49.006Z,78.74
2023-04-04T04:47:20.726Z,78.79
2023-04-04T04:47:52.746Z,78.63
2023-04-04T04:48:24.452Z,78.54
2023-04-04T04:48:56.300Z,78.57
2023-04-04T04:49:28.001Z,78.52
2023-04-04T04:49:59.616Z,78.50
2023-04-04T04:50:31.265Z,78.50
2023-04-04T04:51:04.467Z,78.52
2023-04-04T04:51:36.397Z,78.57
2023-04-04T04:52:08.124Z,78.64
2023-04-04T04:52:39.867Z,78.51
2023-04-04T04:53:11.689Z,78.50
2023-04-04T04:53:43.292Z,78.50
2023-04-04T04:54:14.904Z,78.42
2023-04-04T04:54:46.524Z,78.31
2023-04-04T04:55:18.694Z,78.53
2023-04-04T04:55:52.300Z,78.64
2023-04-04T04:56:23.925Z,79.00
2023-04-04T04:56:55.466Z,78.95
2023-04-04T04:57:27.849Z,78.73
2023-04-04T04:57:59.450Z,78.45
2023-04-04T04:58:31.247Z,78.48
2023-04-04T04:59:03.467Z,78.43
2023-04-04T04:59:35.280Z,78.44
2023-04-04T05:00:07.513Z,78.58
2023-04-04T05:00:39.657Z,78.57
2023-04-04T05:01:12.059Z,78.45
2023-04-04T05:01:43.752Z,78.37
2023-04-04T05:02:16.794Z,78.17
2023-04-04T05:02:48.672Z,78.54
2023-04-04T05:03:20.806Z,78.41
2023-04-04T05:03:53.534Z,78.21
2023-04-04T05:04:25.329Z,78.09
2023-04-04T05:04:57.221Z,78.10
2023-04-04T05:05:28.818Z,77.91
2023-04-04T05:06:00.392Z,78.38
2023-04-04T05:06:31.952Z,78.39
2023-04-04T05:07:03.634Z,78.27
2023-04-04T05:07:35.357Z,78.12
2023-04-04T05:08:07.209Z,78.24
2023-04-04T05:08:38.858Z,78.29
2023-04-04T05:09:10.498Z,78.12
2023-04-04T05:09:42.438Z,78.30
2023-04-04T05:10:14.168Z,78.51
2023-04-04T05:10:45.957Z,78.21
2023-04-04T05:11:17.518Z,78.24
2023-04-04T05:11:49.085Z,78.82
2023-04-04T05:12:20.649Z,78.77
2023-04-04T05:12:52.336Z,78.31
2023-04-04T05:13:24.014Z,78.29
2023-04-04T05:13:55.716Z,77.93
2023-04-04T05:14:27.694Z,77.88
2023-04-04T05:14:59.424Z,78.02
2023-04-04T05:15:32.297Z,77.83
2023-04-04T05:16:04.936Z,77.73
2023-04-04T05:16:36.792Z,77.16
2023-04-04T05:17:08.570Z,77.15
2023-04-04T05:17:40.877Z,77.81
2023-04-04T05:18:12.538Z,77.85
2023-04-04T05:18:44.136Z,77.89
2023-04-04T05:19:15.841Z,77.83
2023-04-04T05:19:47.607Z,77.44
2023-04-04T05:20:19.242Z,77.17
2023-04-04T05:20:59.857Z,77.07
2023-04-04T05:21:31.511Z,77.51
2023-04-04T05:22:03.275Z,77.59
2023-04-04T05:22:34.918Z,77.63
2023-04-04T05:23:07.170Z,77.46
2023-04-04T05:23:38.850Z,77.46
2023-04-04T05:24:10.544Z,77.37
2023-04-04T05:24:43.286Z,77.41
2023-04-04T05:25:15.224Z,77.27
2023-04-04T05:25:53.316Z,77.07
2023-04-04T05:26:25.108Z,77.14
2023-04-04T05:26:56.720Z,77.31
2023-04-04T05:27:28.332Z,77.24
2023-04-04T05:27:59.928Z,77.33
2023-04-04T05:28:31.492Z,76.99
2023-04-04T05:29:03.066Z,77.37
2023-04-04T05:29:34.708Z,77.69
2023-04-04T05:30:07.974Z,77.37
2023-04-04T05:30:40.432Z,77.95
2023-04-04T05:31:12.267Z,77.54
2023-04-04T05:31:43.886Z,76.85
2023-04-04T05:32:16.043Z,76.91
2023-04-04T05:32:47.717Z,76.92
2023-04-04T05:33:19.307Z,77.26
2023-04-04T05:33:51.145Z,77.11
2023-04-04T05:34:22.810Z,76.89
2023-04-04T05:34:54.419Z,77.16
2023-04-04T05:35:26.199Z,76.83
2023-04-04T05:35:59.930Z,76.82
2023-04-04T05:36:31.806Z,76.96
2023-04-04T05:37:03.393Z,76.63
2023-04-04T05:37:38.999Z,76.93
2023-04-04T05:38:10.794Z,76.77
2023-04-04T05:38:42.529Z,76.53
2023-04-04T05:39:14.090Z,76.39
2023-04-04T05:39:45.668Z,76.20
2023-04-04T05:40:17.371Z,76.56
2023-04-04T05:40:48.950Z,75.96
2023-04-04T05:41:20.519Z,75.97
2023-04-04T05:41:52.188Z,76.20
2023-04-04T05:42:23.769Z,76.44
2023-04-04T05:42:59.681Z,76.37
2023-04-04T05:43:31.432Z,76.27
2023-04-04T05:44:03.165Z,75.75
2023-04-04T05:44:34.755Z,75.65
2023-04-04T05:45:06.983Z,75.36
2023-04-04T05:45:40.488Z,75.45
2023-04-04T05:46:12.994Z,75.21
2023-04-04T05:46:44.665Z,75.15
2023-04-04T05:47:16.604Z,75.73
2023-04-04T05:47:48.338Z,75.80
2023-04-04T05:48:19.960Z,75.36
2023-04-04T05:48:52.103Z,75.09
2023-04-04T05:49:23.723Z,75.20
2023-04-04T05:49:55.730Z,74.68
2023-04-04T05:50:27.339Z,74.71
2023-04-04T05:50:58.969Z,74.02
2023-04-04T05:51:30.611Z,73.59
2023-04-04T05:52:02.666Z,73.49
2023-04-04T05:52:34.261Z,73.46
2023-04-04T05:53:06.101Z,73.31
2023-04-04T05:53:37.703Z,73.15
2023-04-04T05:54:09.354Z,73.02
2023-04-04T05:54:41.116Z,73.09
2023-04-04T05:55:12.732Z,73.48
2023-04-04T05:55:44.368Z,73.12
2023-04-04T05:56:16.169Z,73.16
2023-04-04T05:56:47.992Z,73.27
2023-04-04T05:57:19.601Z,73.33
2023-04-04T05:57:51.801Z,73.69
2023-04-04T05:58:23.544Z,73.79
2023-04-04T05:58:55.149Z,73.85
2023-04-04T05:59:27.277Z,73.95
2023-04-04T05:59:59.216Z,73.95
2023-04-04T06:00:31.110Z,74.28
2023-04-04T06:01:07.093Z,73.62
2023-04-04T06:01:38.864Z,73.46
2023-04-04T06:02:10.476Z,73.49
2023-04-04T06:02:42.287Z,73.55
2023-04-04T06:03:14.061Z,73.54
2023-04-04T06:03:45.855Z,73.13
2023-04-04T06:04:17.500Z,72.64
2023-04-04T06:04:49.516Z,72.50
2023-04-04T06:05:21.187Z,72.19
2023-04-04T06:05:53.475Z,71.53
2023-04-04T06:06:25.341Z,72.02
2023-04-04T06:06:57.046Z,71.88
2023-04-04T06:07:28.623Z,72.08
2023-04-04T06:08:00.852Z,72.91
2023-04-04T06:08:40.157Z,72.96
2023-04-04T06:09:22.103Z,73.39
2023-04-04T06:09:53.695Z,73.38
2023-04-04T06:10:25.299Z,73.30
2023-04-04T06:10:56.966Z,72.76
2023-04-04T06:11:28.626Z,72.59
2023-04-04T06:12:00.238Z,71.93
2023-04-04T06:12:31.886Z,71.75
2023-04-04T06:13:03.500Z,72.61
2023-04-04T06:13:35.107Z,73.31
2023-04-04T06:14:08.260Z,77.29
2023-04-04T06:14:39.860Z,74.73
2023-04-04T06:15:11.804Z,73.59
2023-04-04T06:15:43.446Z,71.77
2023-04-04T06:16:15.417Z,70.55
2023-04-04T06:16:47.423Z,71.70
2023-04-04T06:17:19.220Z,72.09
2023-04-04T06:17:50.867Z,72.15
2023-04-04T06:18:22.555Z,72.71
2023-04-04T06:18:54.296Z,71.92
2023-04-04T06:19:26.105Z,72.20
2023-04-04T06:19:57.709Z,71.94
2023-04-04T06:20:29.329Z,72.44
2023-04-04T06:21:01.041Z,72.58
2023-04-04T06:21:32.625Z,72.43
2023-04-04T06:22:04.227Z,72.57
2023-04-04T06:22:36.156Z,73.35
2023-04-04T06:23:09.999Z,72.22
2023-04-04T06:23:41.713Z,71.71
2023-04-04T06:24:13.324Z,71.58
2023-04-04T06:24:45.108Z,71.61
2023-04-04T06:25:16.816Z,71.22
2023-04-04T06:25:48.531Z,70.74
2023-04-04T06:26:20.631Z,70.82
2023-04-04T06:26:52.839Z,71.27
2023-04-04T06:27:24.433Z,70.99
2023-04-04T06:27:56.256Z,70.81
2023-04-04T06:28:27.847Z,70.76
2023-04-04T06:28:59.420Z,71.05
2023-04-04T06:29:31.480Z,71.16
2023-04-04T06:30:03.824Z,70.83
2023-04-04T06:30:37.738Z,70.88
2023-04-04T06:31:09.731Z,70.10
2023-04-04T06:31:41.484Z,70.13
2023-04-04T06:32:13.110Z,70.52
2023-04-04T06:32:45.166Z,69.76
2023-04-04T06:33:17.887Z,69.54
2023-04-04T06:33:49.891Z,68.85
2023-04-04T06:34:22.810Z,68.04
2023-04-04T06:34:54.500Z,68.54
2023-04-04T06:35:26.149Z,68.13
2023-04-04T06:35:57.916Z,68.08
2023-04-04T06:36:29.595Z,67.89
2023-04-04T06:37:01.436Z,67.58
2023-04-04T06:37:35.887Z,67.57
2023-04-04T06:38:07.598Z,66.81
2023-04-04T06:38:39.258Z,66.04
2023-04-04T06:39:12.669Z,65.52
2023-04-04T06:39:44.312Z,65.24
2023-04-04T06:40:16.298Z,64.98
2023-04-04T06:40:48.106Z,64.19
2023-04-04T06:41:19.804Z,63.88
2023-04-04T06:41:51.756Z,63.77
2023-04-04T06:42:23.318Z,63.45
2023-04-04T06:42:58.546Z,63.35
2023-04-04T06:43:31.078Z,63.40
2023-04-04T06:44:02.868Z,63.08
2023-04-04T06:44:34.436Z,63.19
2023-04-04T06:45:06.565Z,62.87
2023-04-04T06:45:38.225Z,62.87
2023-04-04T06:46:09.825Z,61.83
2023-04-04T06:46:41.663Z,61.82
2023-04-04T06:47:13.904Z,62.05
2023-04-04T06:47:46.673Z,61.68
2023-04-04T06:48:18.824Z,61.75
2023-04-04T06:48:50.628Z,62.25
2023-04-04T06:49:22.208Z,62.36
2023-04-04T06:49:53.885Z,62.40
2023-04-04T06:50:25.805Z,63.04
2023-04-04T06:50:57.576Z,63.18
2023-04-04T06:51:29.361Z,63.76
2023-04-04T06:52:01.279Z,64.14
2023-04-04T06:52:33.492Z,64.05
2023-04-04T06:53:06.683Z,63.57
2023-04-04T06:53:38.773Z,63.45
2023-04-04T06:54:10.775Z,62.93
2023-04-04T06:54:42.504Z,62.95
2023-04-04T06:55:14.350Z,62.89
2023-04-04T06:55:46.032Z,63.03
2023-04-04T06:56:17.665Z,63.46
2023-04-04T06:56:49.280Z,62.90
2023-04-04T06:57:21.324Z,63.41
2023-04-04T06:57:52.949Z,63.01